Weather at Dakhla Airport

Public forecast

Using degrees Celsius for public forecast. Weather courtesy of forecast.io.

Current aviation weather report (METAR) for Dakhla Airport

Report is more than 6 hours old.

Retrieved 2020/11/25 21:00 UTC (7 hours ago):

GMMH 252100Z 01009KT 6000 NSC 19/12 Q1017 NOSIG

Aviation forecast (TAF) for Dakhla Airport

Retrieved 2020-11-26 00:00 UTC (4 hours ago):

TAF GMMH 252300Z 2600/2706 02012KT 6000 NSC